首页
METAR-TAF:

METAR-TAF

机场 :

东京直升机场, 日本

纬度: 35-38N, 经度: 139-51E, 海拔: 5米

当前天气观测

该预报发布于49分钟前的07:25 UTC
风速9节,风向,在西转西北北转东北之间变化
温度 13°C
湿度 100%
气压 1000 hPa
能見度: 2500
少量云层高于400英尺
散云层高于800英尺
多云层高于2000英尺
小雨, 轻雾

METAR: RJTI 010725Z 35009KT 300V030 2500 -RA BR FEW004 SCT008 BKN020 13/13 Q1000 RMK 1ST004 3ST008 7SC020 A2954

时间: 17:14 (08:14 UTC)


TAF: 丢失

超过4000个机场的气象观测和天气预报(METAR&TAF报告)。

可查询的气象台以黄色和红色小点在地图上表示。

将鼠标移到小点上方,可查看气象台名称。

然后点击查看天气观测和预报。

如需切换地图:点击带黑十字的绿色按钮放大地图;点击带横线的绿色按钮缩小地图;或者点击绿色箭头查看邻近地区的地图。


METAR-TAF: